createdAt,value
2022-12-20T00:01:45.505Z,4.92
2022-12-20T00:04:14.843Z,4.85
2022-12-20T00:06:44.421Z,5.10
2022-12-20T00:09:14.472Z,5.03
2022-12-20T00:11:43.780Z,5.25
2022-12-20T00:14:13.244Z,4.65
2022-12-20T00:16:43.020Z,4.53
2022-12-20T00:19:13.026Z,4.80
2022-12-20T00:21:42.505Z,4.70
2022-12-20T00:24:12.397Z,4.53
2022-12-20T00:26:41.601Z,4.50
2022-12-20T00:29:11.637Z,4.47
2022-12-20T00:31:41.602Z,4.33
2022-12-20T00:34:11.325Z,4.30
2022-12-20T00:36:41.241Z,4.50
2022-12-20T00:39:11.418Z,4.20
2022-12-20T00:41:40.679Z,3.90
2022-12-20T00:44:10.011Z,4.47
2022-12-20T00:46:39.248Z,4.65
2022-12-20T00:49:10.234Z,4.83
2022-12-20T00:51:39.451Z,4.80
2022-12-20T00:54:08.959Z,4.75
2022-12-20T00:56:38.152Z,5.15
2022-12-20T00:59:07.906Z,5.35
2022-12-20T01:01:37.209Z,5.40
2022-12-20T01:04:06.771Z,5.10
2022-12-20T01:06:37.325Z,5.22
2022-12-20T01:09:06.949Z,5.20
2022-12-20T01:11:37.687Z,5.20
2022-12-20T01:14:13.325Z,5.70
2022-12-20T01:16:45.105Z,5.85
2022-12-20T01:19:18.391Z,5.45
2022-12-20T01:21:47.780Z,5.30
2022-12-20T01:24:18.876Z,5.45
2022-12-20T01:26:49.013Z,5.67
2022-12-20T01:29:20.230Z,5.78
2022-12-20T01:31:49.926Z,5.83
2022-12-20T01:34:19.569Z,5.90
2022-12-20T01:36:49.639Z,5.80
2022-12-20T01:39:19.223Z,5.75
2022-12-20T01:41:48.400Z,5.90
2022-12-20T01:44:23.646Z,6.08
2022-12-20T01:46:53.898Z,5.97
2022-12-20T01:49:29.441Z,5.97
2022-12-20T01:52:01.447Z,6.37
2022-12-20T01:54:36.841Z,6.40
2022-12-20T01:57:12.532Z,6.60
2022-12-20T01:59:43.290Z,6.30
2022-12-20T02:02:14.165Z,6.62
2022-12-20T02:04:44.012Z,6.87
2022-12-20T02:07:17.373Z,7.05
2022-12-20T02:09:47.183Z,6.75
2022-12-20T02:12:18.602Z,6.50
2022-12-20T02:15:11.010Z,6.80
2022-12-20T02:17:58.885Z,6.80
2022-12-20T02:20:46.890Z,6.70
2022-12-20T02:23:35.846Z,6.40
2022-12-20T02:26:27.024Z,6.30
2022-12-20T02:29:11.710Z,6.25
2022-12-20T02:31:47.268Z,6.30
2022-12-20T02:34:17.537Z,6.53
2022-12-20T02:36:46.809Z,6.08
2022-12-20T02:39:16.710Z,6.22
2022-12-20T02:41:58.275Z,5.85
2022-12-20T02:44:47.976Z,5.70
2022-12-20T02:47:20.312Z,6.12
2022-12-20T02:49:51.480Z,5.90
2022-12-20T02:52:22.365Z,5.10
2022-12-20T02:54:51.786Z,5.20
2022-12-20T02:57:40.724Z,5.72
2022-12-20T03:00:13.438Z,5.53
2022-12-20T03:05:29.897Z,5.28
2022-12-20T03:07:59.700Z,4.78
2022-12-20T03:10:29.354Z,4.80
2022-12-20T03:12:58.567Z,4.60
2022-12-20T03:15:29.652Z,5.00
2022-12-20T03:18:00.331Z,5.00
2022-12-20T03:20:30.236Z,4.80
2022-12-20T03:22:59.510Z,4.45
2022-12-20T03:25:29.112Z,4.80
2022-12-20T03:27:59.183Z,4.72
2022-12-20T03:30:29.324Z,4.60
2022-12-20T03:32:59.175Z,5.05
2022-12-20T03:35:28.817Z,4.47
2022-12-20T03:37:58.030Z,4.62
2022-12-20T03:40:27.799Z,4.50
2022-12-20T03:42:57.105Z,4.40
2022-12-20T03:45:26.567Z,4.28
2022-12-20T03:47:55.793Z,4.28
2022-12-20T03:50:26.668Z,4.37
2022-12-20T03:52:56.262Z,4.65
2022-12-20T03:55:25.785Z,4.33
2022-12-20T03:57:55.212Z,4.70
2022-12-20T04:00:26.415Z,4.30
2022-12-20T04:02:56.995Z,4.35
2022-12-20T04:05:26.851Z,4.40
2022-12-20T04:07:56.166Z,4.53
2022-12-20T04:10:25.542Z,4.62
2022-12-20T04:12:55.117Z,4.25
2022-12-20T04:15:24.938Z,5.00
2022-12-20T04:17:55.664Z,4.70
2022-12-20T04:20:26.846Z,4.90
2022-12-20T04:22:57.862Z,5.40
2022-12-20T04:25:27.494Z,5.80
2022-12-20T04:27:56.915Z,5.20
2022-12-20T04:30:26.175Z,6.12
2022-12-20T04:32:55.921Z,5.70
2022-12-20T04:35:26.297Z,5.87
2022-12-20T04:37:55.980Z,6.12
2022-12-20T04:40:25.195Z,5.95
2022-12-20T04:42:56.265Z,6.10
2022-12-20T04:45:26.098Z,6.62
2022-12-20T04:47:55.876Z,6.42
2022-12-20T04:50:26.949Z,6.53
2022-12-20T04:53:14.059Z,6.97
2022-12-20T04:55:44.145Z,6.75
2022-12-20T04:58:13.346Z,7.12
2022-12-20T05:00:43.269Z,6.85
2022-12-20T05:03:14.453Z,6.70
2022-12-20T05:05:43.963Z,7.58
2022-12-20T05:08:13.454Z,7.28
2022-12-20T05:10:43.470Z,7.42
2022-12-20T05:13:13.124Z,7.30
2022-12-20T05:15:44.800Z,6.95
2022-12-20T05:18:14.258Z,6.60
2022-12-20T05:20:45.418Z,6.72
2022-12-20T05:23:32.947Z,6.75
2022-12-20T05:26:19.030Z,6.37
2022-12-20T05:28:48.602Z,7.25
2022-12-20T05:31:18.226Z,6.90
2022-12-20T05:33:47.839Z,6.47
2022-12-20T05:36:18.367Z,6.22
2022-12-20T05:38:48.419Z,6.37
2022-12-20T05:41:19.899Z,6.00
2022-12-20T05:43:50.874Z,5.45
2022-12-20T05:46:20.374Z,6.12
2022-12-20T05:48:51.757Z,5.12
2022-12-20T05:51:21.233Z,5.10
2022-12-20T05:53:55.347Z,5.45
2022-12-20T05:56:26.274Z,5.35
2022-12-20T05:58:55.597Z,5.15
2022-12-20T06:01:25.135Z,5.25
2022-12-20T06:03:56.739Z,5.30
2022-12-20T06:06:26.271Z,4.67
2022-12-20T06:08:56.313Z,4.85
2022-12-20T06:11:30.201Z,4.40
2022-12-20T06:16:29.246Z,4.70
2022-12-20T06:18:59.127Z,4.53
2022-12-20T06:21:28.632Z,4.28
2022-12-20T06:23:59.698Z,4.45
2022-12-20T06:26:30.851Z,4.30
2022-12-20T06:29:02.212Z,3.85
2022-12-20T06:31:33.572Z,4.42
2022-12-20T06:34:03.163Z,4.12
2022-12-20T06:36:34.052Z,4.08
2022-12-20T06:39:09.499Z,4.00
2022-12-20T06:41:35.602Z,4.35
2022-12-20T06:44:05.895Z,3.85
2022-12-20T06:46:35.894Z,3.83
2022-12-20T06:49:06.302Z,4.30
2022-12-20T06:51:35.570Z,4.35
2022-12-20T06:54:06.053Z,3.80
2022-12-20T06:56:41.286Z,4.10
2022-12-20T07:01:38.082Z,3.87
2022-12-20T07:04:07.594Z,3.98
2022-12-20T07:06:36.789Z,3.98
2022-12-20T07:09:06.584Z,3.67
2022-12-20T07:11:35.840Z,3.80
2022-12-20T07:14:06.611Z,3.72
2022-12-20T07:16:36.401Z,3.90
2022-12-20T07:19:06.197Z,3.75
2022-12-20T07:21:35.457Z,3.80
2022-12-20T07:24:06.026Z,3.90
2022-12-20T07:26:35.421Z,3.90
2022-12-20T07:29:10.445Z,3.75
2022-12-20T07:31:37.558Z,3.80
2022-12-20T07:34:07.054Z,4.70
2022-12-20T07:36:36.252Z,4.12
2022-12-20T07:39:07.296Z,3.52
2022-12-20T07:41:36.505Z,3.83
2022-12-20T07:44:06.920Z,4.05
2022-12-20T07:46:36.153Z,3.83
2022-12-20T07:49:06.290Z,4.67
2022-12-20T07:51:41.231Z,3.72
2022-12-20T07:54:22.325Z,3.60
2022-12-20T07:56:54.338Z,3.27
2022-12-20T07:59:26.534Z,3.20
2022-12-20T08:02:00.719Z,3.47
2022-12-20T08:04:29.077Z,3.37
2022-12-20T08:06:59.955Z,3.35
2022-12-20T08:09:35.357Z,3.42
2022-12-20T08:12:06.431Z,3.40
2022-12-20T08:14:36.145Z,3.30
2022-12-20T08:17:05.409Z,3.45
2022-12-20T08:19:34.891Z,3.45
2022-12-20T08:22:04.390Z,3.60
2022-12-20T08:24:35.037Z,3.58
2022-12-20T08:27:04.319Z,3.87
2022-12-20T08:29:33.976Z,3.87
2022-12-20T08:32:03.151Z,4.53
2022-12-20T08:34:32.875Z,4.05
2022-12-20T08:37:02.075Z,3.95
2022-12-20T08:39:31.835Z,4.35
2022-12-20T08:42:01.484Z,4.20
2022-12-20T08:44:30.915Z,4.50
2022-12-20T08:47:00.684Z,4.62
2022-12-20T08:49:30.094Z,4.95
2022-12-20T08:51:59.385Z,4.90
2022-12-20T08:54:28.993Z,5.10
2022-12-20T08:56:58.376Z,5.83
2022-12-20T08:59:28.015Z,5.03
2022-12-20T09:01:57.337Z,5.05
2022-12-20T09:04:27.080Z,5.33
2022-12-20T09:06:56.327Z,5.22
2022-12-20T09:09:25.772Z,5.40
2022-12-20T09:11:55.560Z,5.45
2022-12-20T09:14:25.398Z,5.33
2022-12-20T09:16:54.628Z,5.53
2022-12-20T09:19:23.845Z,5.83
2022-12-20T09:21:53.348Z,6.05
2022-12-20T09:24:23.137Z,6.12
2022-12-20T09:26:52.445Z,6.15
2022-12-20T09:29:28.135Z,6.10
2022-12-20T09:31:52.916Z,6.53
2022-12-20T09:34:22.683Z,5.87
2022-12-20T09:36:52.090Z,6.90
2022-12-20T09:39:21.403Z,6.30
2022-12-20T09:41:51.378Z,6.30
2022-12-20T09:44:25.847Z,6.65
2022-12-20T09:46:58.419Z,6.50
2022-12-20T09:52:06.993Z,6.75
2022-12-20T09:54:57.586Z,6.72
2022-12-20T09:57:59.815Z,6.53
2022-12-20T10:00:30.263Z,6.78
2022-12-20T10:03:08.714Z,7.22
2022-12-20T10:05:55.015Z,6.80
2022-12-20T10:08:51.056Z,7.10
2022-12-20T10:11:50.940Z,6.95
2022-12-20T10:14:29.652Z,6.90
2022-12-20T10:17:32.729Z,7.00
2022-12-20T10:22:38.907Z,7.10
2022-12-20T10:25:20.340Z,7.50
2022-12-20T10:27:51.057Z,7.17
2022-12-20T10:30:22.587Z,7.30
2022-12-20T10:32:54.239Z,7.60
2022-12-20T10:35:31.828Z,7.83
2022-12-20T10:38:08.404Z,7.53
2022-12-20T10:43:20.769Z,7.90
2022-12-20T10:45:58.953Z,8.13
2022-12-20T10:48:36.059Z,7.92
2022-12-20T10:51:16.641Z,8.30
2022-12-20T10:53:59.603Z,8.73
2022-12-20T10:56:34.226Z,8.58
2022-12-20T10:59:18.529Z,8.75
2022-12-20T11:01:49.225Z,8.40
2022-12-20T11:04:33.297Z,8.35
2022-12-20T11:07:05.679Z,8.75
2022-12-20T11:09:37.419Z,9.10
2022-12-20T11:12:17.341Z,8.73
2022-12-20T11:14:49.102Z,8.80
2022-12-20T11:17:24.551Z,8.43
2022-12-20T11:20:02.782Z,8.80
2022-12-20T11:22:51.699Z,8.58
2022-12-20T11:25:36.041Z,8.50
2022-12-20T11:28:24.871Z,8.50
2022-12-20T11:31:00.502Z,8.20
2022-12-20T11:33:55.670Z,8.80
2022-12-20T11:36:43.438Z,8.70
2022-12-20T11:39:24.737Z,7.78
2022-12-20T11:42:30.099Z,8.53
2022-12-20T11:45:09.212Z,8.00
2022-12-20T11:48:01.026Z,7.97
2022-12-20T11:50:54.262Z,8.43
2022-12-20T11:53:38.496Z,8.05
2022-12-20T11:56:13.852Z,8.53
2022-12-20T11:58:48.877Z,9.05
2022-12-20T12:01:24.545Z,8.98
2022-12-20T12:04:00.384Z,8.45
2022-12-20T12:06:39.306Z,8.73
2022-12-20T12:09:11.699Z,9.10
2022-12-20T12:14:20.889Z,8.83
2022-12-20T12:16:52.508Z,8.95
2022-12-20T12:19:22.585Z,8.80
2022-12-20T12:21:57.737Z,9.23
2022-12-20T12:24:36.216Z,9.60
2022-12-20T12:27:09.834Z,8.75
2022-12-20T12:29:37.064Z,8.90
2022-12-20T12:32:10.118Z,9.25
2022-12-20T12:34:58.990Z,9.75
2022-12-20T12:37:52.520Z,9.23
2022-12-20T12:40:59.689Z,9.60
2022-12-20T12:43:46.424Z,10.35
2022-12-20T12:46:22.274Z,10.32
2022-12-20T12:49:03.282Z,10.65
2022-12-20T12:51:38.871Z,9.68
2022-12-20T12:54:20.119Z,9.98
2022-12-20T12:56:50.854Z,9.90
2022-12-20T12:59:37.831Z,10.13
2022-12-20T13:02:21.198Z,10.65
2022-12-20T13:05:13.556Z,10.05
2022-12-20T13:07:44.554Z,10.97
2022-12-20T13:10:20.473Z,10.95
2022-12-20T13:12:53.143Z,11.08
2022-12-20T13:18:03.292Z,10.43
2022-12-20T13:20:34.788Z,11.00
2022-12-20T13:23:13.054Z,10.70
2022-12-20T13:25:44.465Z,10.72
2022-12-20T13:28:29.194Z,11.25
2022-12-20T13:31:07.716Z,10.58
2022-12-20T13:33:42.918Z,10.08
2022-12-20T13:36:15.335Z,10.40
2022-12-20T13:38:58.896Z,10.93
2022-12-20T13:41:42.610Z,9.98
2022-12-20T13:44:27.521Z,9.90
2022-12-20T13:47:08.746Z,10.38
2022-12-20T13:49:40.214Z,10.30
2022-12-20T13:52:27.192Z,10.68
2022-12-20T13:54:58.837Z,10.53
2022-12-20T13:57:42.032Z,10.43
2022-12-20T14:00:28.454Z,10.38
2022-12-20T14:02:58.134Z,10.35
2022-12-20T14:05:30.302Z,10.35
2022-12-20T14:08:11.627Z,10.70
2022-12-20T14:10:40.964Z,10.03
2022-12-20T14:13:29.275Z,8.18
2022-12-20T14:16:01.664Z,5.95
2022-12-20T14:18:31.206Z,0.10
2022-12-20T14:21:03.697Z,0.20
2022-12-20T14:23:39.231Z,0.17
2022-12-20T14:26:11.622Z,0.55
2022-12-20T14:28:46.707Z,0.20
2022-12-20T14:31:39.538Z,0.08
2022-12-20T14:34:14.720Z,0.85
2022-12-20T14:36:48.895Z,1.27
2022-12-20T14:39:32.704Z,0.20
2022-12-20T14:42:04.119Z,0.00
2022-12-20T14:44:34.245Z,0.42
2022-12-20T14:47:25.070Z,0.05
2022-12-20T14:50:00.239Z,0.00
2022-12-20T14:52:38.103Z,0.45
2022-12-20T14:55:13.945Z,0.57
2022-12-20T14:57:52.025Z,0.28
2022-12-20T15:00:24.784Z,0.90
2022-12-20T15:03:00.098Z,0.98
2022-12-20T15:05:38.966Z,0.13
2022-12-20T15:08:32.213Z,0.00
2022-12-20T15:11:13.791Z,0.17
2022-12-20T15:13:50.392Z,0.03
2022-12-20T15:16:25.542Z,0.20
2022-12-20T15:18:57.372Z,0.00
2022-12-20T15:21:37.380Z,0.17
2022-12-20T15:24:10.319Z,0.03
2022-12-20T15:29:08.456Z,0.25
2022-12-20T15:31:38.020Z,0.15
2022-12-20T15:34:22.618Z,0.88
2022-12-20T15:36:51.812Z,0.55
2022-12-20T15:39:21.826Z,0.25
2022-12-20T15:41:51.360Z,0.95
2022-12-20T15:44:25.247Z,0.23
2022-12-20T15:46:54.714Z,0.23
2022-12-20T15:49:27.613Z,0.65
2022-12-20T15:51:57.280Z,0.55
2022-12-20T15:54:29.659Z,1.02
2022-12-20T15:57:02.205Z,0.42
2022-12-20T15:59:59.090Z,0.98
2022-12-20T16:02:03.607Z,0.35
2022-12-20T16:04:33.198Z,0.17
2022-12-20T16:07:05.199Z,0.45
2022-12-20T16:09:33.337Z,0.20
2022-12-20T16:12:03.583Z,0.28
2022-12-20T16:14:33.191Z,0.88
2022-12-20T16:17:02.450Z,0.42
2022-12-20T16:19:31.966Z,1.02
2022-12-20T16:22:01.421Z,0.30
2022-12-20T16:24:30.720Z,0.37
2022-12-20T16:27:00.012Z,1.00
2022-12-20T16:29:29.232Z,0.50
2022-12-20T16:31:58.821Z,1.50
2022-12-20T16:34:28.141Z,0.08
2022-12-20T16:36:57.629Z,1.45
2022-12-20T16:39:26.852Z,0.10
2022-12-20T16:41:56.568Z,1.00
2022-12-20T16:44:25.807Z,0.45
2022-12-20T16:46:55.498Z,0.17
2022-12-20T16:49:25.169Z,0.88
2022-12-20T16:51:54.581Z,0.37
2022-12-20T16:54:24.529Z,0.23
2022-12-20T16:56:55.155Z,0.17
2022-12-20T16:59:25.436Z,0.47
2022-12-20T17:01:57.564Z,0.55
2022-12-20T17:04:27.260Z,0.65
2022-12-20T17:06:56.896Z,2.15
2022-12-20T17:09:26.458Z,0.90
2022-12-20T17:11:55.994Z,1.52
2022-12-20T17:14:25.226Z,2.10
2022-12-20T17:16:54.609Z,2.20
2022-12-20T17:19:23.847Z,1.60
2022-12-20T17:24:40.813Z,0.60
2022-12-20T17:27:12.268Z,0.57
2022-12-20T17:29:41.486Z,0.28
2022-12-20T17:32:17.346Z,1.32
2022-12-20T17:34:46.664Z,0.30
2022-12-20T17:37:17.478Z,0.88
2022-12-20T17:39:46.877Z,1.37
2022-12-20T17:42:16.690Z,1.30
2022-12-20T17:44:49.080Z,0.45
2022-12-20T17:47:18.438Z,0.72
2022-12-20T17:49:48.190Z,0.20
2022-12-20T17:52:17.598Z,0.30
2022-12-20T17:54:47.221Z,1.00
2022-12-20T17:57:17.490Z,0.42
2022-12-20T17:59:46.939Z,1.70
2022-12-20T18:02:22.000Z,1.37
2022-12-20T18:04:52.353Z,1.82
2022-12-20T18:07:21.623Z,1.05
2022-12-20T18:09:51.326Z,0.90
2022-12-20T18:12:22.349Z,1.50
2022-12-20T18:14:51.622Z,0.55
2022-12-20T18:17:20.875Z,0.82
2022-12-20T18:19:52.053Z,1.02
2022-12-20T18:22:21.347Z,2.02
2022-12-20T18:24:50.960Z,1.00
2022-12-20T18:27:23.826Z,0.62
2022-12-20T18:29:51.378Z,1.30
2022-12-20T18:32:20.695Z,0.80
2022-12-20T18:34:50.186Z,1.00
2022-12-20T18:37:19.443Z,1.00
2022-12-20T18:39:48.957Z,0.50
2022-12-20T18:42:18.459Z,0.85
2022-12-20T18:44:48.038Z,2.08
2022-12-20T18:47:17.364Z,0.82
2022-12-20T18:49:46.832Z,1.20
2022-12-20T18:52:16.098Z,0.65
2022-12-20T18:54:45.484Z,0.95
2022-12-20T18:57:14.803Z,1.40
2022-12-20T18:59:44.384Z,2.45
2022-12-20T19:02:15.061Z,0.80
2022-12-20T19:04:45.231Z,3.02
2022-12-20T19:07:15.561Z,1.98
2022-12-20T19:09:45.288Z,1.72
2022-12-20T19:12:14.524Z,0.37
2022-12-20T19:14:44.183Z,1.47
2022-12-20T19:17:13.717Z,1.67
2022-12-20T19:19:43.467Z,1.80
2022-12-20T19:22:12.742Z,1.15
2022-12-20T19:24:42.189Z,1.90
2022-12-20T19:27:11.546Z,2.08
2022-12-20T19:29:41.369Z,0.93
2022-12-20T19:32:10.685Z,1.15
2022-12-20T19:34:40.501Z,1.12
2022-12-20T19:37:09.831Z,1.22
2022-12-20T19:39:39.534Z,1.57
2022-12-20T19:42:25.475Z,2.33
2022-12-20T19:44:40.708Z,0.65
2022-12-20T19:47:10.041Z,1.15
2022-12-20T19:49:39.484Z,1.47
2022-12-20T19:52:09.145Z,1.15
2022-12-20T19:54:39.999Z,0.82
2022-12-20T19:57:10.359Z,1.45
2022-12-20T19:59:39.919Z,1.07
2022-12-20T20:02:11.157Z,1.07
2022-12-20T20:04:40.883Z,0.80
2022-12-20T20:07:10.329Z,2.70
2022-12-20T20:09:39.924Z,1.72
2022-12-20T20:12:09.291Z,0.45
2022-12-20T20:14:38.757Z,1.45
2022-12-20T20:17:09.201Z,1.45
2022-12-20T20:19:38.791Z,1.92
2022-12-20T20:22:10.170Z,2.45
2022-12-20T20:24:39.931Z,2.30
2022-12-20T20:27:09.212Z,1.02
2022-12-20T20:29:38.550Z,1.87
2022-12-20T20:32:07.807Z,0.60
2022-12-20T20:34:37.480Z,1.92
2022-12-20T20:37:06.959Z,1.77
2022-12-20T20:39:36.213Z,1.17
2022-12-20T20:42:07.129Z,1.65
2022-12-20T20:44:36.467Z,2.77
2022-12-20T20:47:05.973Z,0.47
2022-12-20T20:49:35.383Z,1.60
2022-12-20T20:52:04.744Z,1.02
2022-12-20T20:54:34.226Z,1.75
2022-12-20T20:57:03.528Z,0.75
2022-12-20T20:59:33.181Z,1.92
2022-12-20T21:02:02.766Z,1.67
2022-12-20T21:04:32.406Z,1.87
2022-12-20T21:07:01.611Z,0.75
2022-12-20T21:09:32.467Z,2.05
2022-12-20T21:12:01.933Z,2.92
2022-12-20T21:15:10.489Z,3.65
2022-12-20T21:17:02.923Z,2.60
2022-12-20T21:19:32.503Z,1.65
2022-12-20T21:22:01.740Z,3.37
2022-12-20T21:24:31.271Z,2.10
2022-12-20T21:27:00.529Z,1.50
2022-12-20T21:29:29.842Z,3.22
2022-12-20T21:31:59.372Z,1.90
2022-12-20T21:34:29.228Z,2.47
2022-12-20T21:36:58.549Z,1.35
2022-12-20T21:39:27.923Z,1.20
2022-12-20T21:42:01.985Z,1.62
2022-12-20T21:44:28.319Z,3.20
2022-12-20T21:46:57.699Z,1.70
2022-12-20T21:49:27.231Z,2.10
2022-12-20T21:51:57.019Z,1.25
2022-12-20T21:54:26.766Z,1.30
2022-12-20T21:56:56.210Z,1.67
2022-12-20T21:59:26.109Z,3.37
2022-12-20T22:01:55.994Z,2.25
2022-12-20T22:04:26.053Z,1.55
2022-12-20T22:06:55.363Z,3.70
2022-12-20T22:09:25.309Z,0.50
2022-12-20T22:11:54.537Z,1.90
2022-12-20T22:14:23.875Z,0.72
2022-12-20T22:16:54.822Z,1.17
2022-12-20T22:19:24.833Z,1.15
2022-12-20T22:21:58.281Z,0.47
2022-12-20T22:24:25.489Z,2.02
2022-12-20T22:26:54.735Z,2.10
2022-12-20T22:29:24.239Z,1.32
2022-12-20T22:31:53.570Z,1.75
2022-12-20T22:34:23.175Z,3.50
2022-12-20T22:36:52.816Z,1.35
2022-12-20T22:39:22.046Z,1.65
2022-12-20T22:41:51.325Z,2.30
2022-12-20T22:44:20.570Z,1.80
2022-12-20T22:46:49.810Z,2.17
2022-12-20T22:49:19.352Z,2.47
2022-12-20T22:51:59.320Z,1.42
2022-12-20T22:54:20.155Z,2.08
2022-12-20T22:56:49.572Z,1.87
2022-12-20T22:59:18.987Z,2.30
2022-12-20T23:01:48.801Z,1.45
2022-12-20T23:04:18.192Z,1.52
2022-12-20T23:06:47.844Z,0.72
2022-12-20T23:09:17.026Z,3.12
2022-12-20T23:12:04.880Z,1.02
2022-12-20T23:14:52.285Z,0.85
2022-12-20T23:17:21.843Z,1.35
2022-12-20T23:20:09.329Z,1.02
2022-12-20T23:22:38.535Z,1.90
2022-12-20T23:25:16.208Z,2.90
2022-12-20T23:27:48.151Z,1.67
2022-12-20T23:30:20.877Z,2.00
2022-12-20T23:32:50.265Z,3.40
2022-12-20T23:35:21.286Z,3.08
2022-12-20T23:37:50.535Z,2.45
2022-12-20T23:40:19.927Z,1.32
2022-12-20T23:42:49.118Z,1.52
2022-12-20T23:45:18.792Z,1.55
2022-12-20T23:47:47.981Z,2.45
2022-12-20T23:50:17.617Z,1.77
2022-12-20T23:52:46.821Z,1.40
2022-12-20T23:55:16.331Z,1.72
2022-12-20T23:57:45.550Z,2.02
